sensor_id;sensor_type;location;lat;lon;timestamp;pressure;altitude;pressure_sealevel;temperature;humidity
56270;BME280;42176;43.240;27.880;2023-04-30T00:01:40;99831.84;;;6.35;98.59
56270;BME280;42176;43.240;27.880;2023-04-30T00:04:05;99831.97;;;6.19;98.73
56270;BME280;42176;43.240;27.880;2023-04-30T00:06:30;99835.59;;;6.06;99.53
56270;BME280;42176;43.240;27.880;2023-04-30T00:08:56;99823.31;;;6.03;99.39
56270;BME280;42176;43.240;27.880;2023-04-30T00:11:22;99829.34;;;6.18;99.50
56270;BME280;42176;43.240;27.880;2023-04-30T00:13:48;99835.50;;;6.18;99.04
56270;BME280;42176;43.240;27.880;2023-04-30T00:16:13;99835.34;;;6.34;98.80
56270;BME280;42176;43.240;27.880;2023-04-30T00:18:39;99829.13;;;6.43;97.84
56270;BME280;42176;43.240;27.880;2023-04-30T00:21:04;99836.00;;;6.54;97.44
56270;BME280;42176;43.240;27.880;2023-04-30T00:23:30;99831.59;;;6.57;96.89
56270;BME280;42176;43.240;27.880;2023-04-30T00:25:55;99835.94;;;6.64;96.23
56270;BME280;42176;43.240;27.880;2023-04-30T00:28:21;99823.69;;;6.61;95.90
56270;BME280;42176;43.240;27.880;2023-04-30T00:30:46;99828.22;;;6.45;96.63
56270;BME280;42176;43.240;27.880;2023-04-30T00:33:11;99829.09;;;6.46;96.95
56270;BME280;42176;43.240;27.880;2023-04-30T00:35:37;99823.00;;;6.39;97.14
56270;BME280;42176;43.240;27.880;2023-04-30T00:38:02;99814.16;;;6.46;96.58
56270;BME280;42176;43.240;27.880;2023-04-30T00:40:28;99824.50;;;6.65;96.24
56270;BME280;42176;43.240;27.880;2023-04-30T00:42:54;99829.75;;;6.68;95.39
56270;BME280;42176;43.240;27.880;2023-04-30T00:45:21;99821.03;;;6.60;94.77
56270;BME280;42176;43.240;27.880;2023-04-30T00:47:47;99826.34;;;6.57;94.57
56270;BME280;42176;43.240;27.880;2023-04-30T00:50:14;99826.25;;;6.66;94.49
56270;BME280;42176;43.240;27.880;2023-04-30T00:52:43;99824.38;;;6.77;94.27
56270;BME280;42176;43.240;27.880;2023-04-30T00:55:10;99817.28;;;6.82;93.45
56270;BME280;42176;43.240;27.880;2023-04-30T00:57:37;99818.09;;;6.88;92.59
56270;BME280;42176;43.240;27.880;2023-04-30T01:00:03;99818.25;;;6.77;92.39
56270;BME280;42176;43.240;27.880;2023-04-30T01:02:29;99819.16;;;6.71;92.04
56270;BME280;42176;43.240;27.880;2023-04-30T01:04:55;99819.06;;;6.80;92.66
56270;BME280;42176;43.240;27.880;2023-04-30T01:07:21;99827.84;;;6.82;92.22
56270;BME280;42176;43.240;27.880;2023-04-30T01:09:47;99821.72;;;6.77;91.78
56270;BME280;42176;43.240;27.880;2023-04-30T01:12:20;99815.78;;;6.60;92.48
56270;BME280;42176;43.240;27.880;2023-04-30T01:17:54;99821.69;;;6.80;91.55
56270;BME280;42176;43.240;27.880;2023-04-30T01:20:21;99824.53;;;6.62;91.70
56270;BME280;42176;43.240;27.880;2023-04-30T01:22:57;99819.25;;;6.65;92.03
56270;BME280;42176;43.240;27.880;2023-04-30T01:28:05;99812.09;;;6.76;91.66
56270;BME280;42176;43.240;27.880;2023-04-30T01:30:33;99813.88;;;6.71;91.55
56270;BME280;42176;43.240;27.880;2023-04-30T01:32:59;99811.41;;;6.55;91.79
56270;BME280;42176;43.240;27.880;2023-04-30T01:44:16;99811.97;;;5.98;94.91
56270;BME280;42176;43.240;27.880;2023-04-30T01:47:05;99810.19;;;6.00;95.71
56270;BME280;42176;43.240;27.880;2023-04-30T01:52:17;99800.00;;;6.57;92.36
56270;BME280;42176;43.240;27.880;2023-04-30T01:57:43;99800.31;;;7.07;88.57
56270;BME280;42176;43.240;27.880;2023-04-30T02:00:12;99804.16;;;7.46;84.73
56270;BME280;42176;43.240;27.880;2023-04-30T02:02:39;99799.47;;;7.66;83.94
56270;BME280;42176;43.240;27.880;2023-04-30T02:05:05;99796.66;;;7.76;82.33
56270;BME280;42176;43.240;27.880;2023-04-30T02:07:44;99803.53;;;7.87;81.21
56270;BME280;42176;43.240;27.880;2023-04-30T02:10:10;99805.03;;;8.03;79.39
56270;BME280;42176;43.240;27.880;2023-04-30T02:12:39;99804.09;;;8.06;78.96
56270;BME280;42176;43.240;27.880;2023-04-30T02:15:05;99796.00;;;8.17;78.08
56270;BME280;42176;43.240;27.880;2023-04-30T02:17:31;99799.38;;;8.25;76.99
56270;BME280;42176;43.240;27.880;2023-04-30T02:19:58;99799.19;;;8.34;75.91
56270;BME280;42176;43.240;27.880;2023-04-30T02:22:23;99789.34;;;8.44;75.11
56270;BME280;42176;43.240;27.880;2023-04-30T02:24:48;99795.41;;;8.51;74.78
56270;BME280;42176;43.240;27.880;2023-04-30T02:27:14;99790.06;;;8.54;74.17
56270;BME280;42176;43.240;27.880;2023-04-30T02:29:40;99786.44;;;8.58;73.79
56270;BME280;42176;43.240;27.880;2023-04-30T02:32:05;99783.75;;;8.63;73.11
56270;BME280;42176;43.240;27.880;2023-04-30T02:34:31;99781.00;;;8.67;73.22
56270;BME280;42176;43.240;27.880;2023-04-30T02:36:56;99780.94;;;8.71;73.07
56270;BME280;42176;43.240;27.880;2023-04-30T02:39:21;99787.78;;;8.81;72.69
56270;BME280;42176;43.240;27.880;2023-04-30T02:41:47;99771.81;;;8.87;72.61
56270;BME280;42176;43.240;27.880;2023-04-30T02:44:12;99762.88;;;8.91;71.71
56270;BME280;42176;43.240;27.880;2023-04-30T02:46:38;99771.59;;;8.96;71.11
56270;BME280;42176;43.240;27.880;2023-04-30T02:49:03;99780.16;;;9.08;70.82
56270;BME280;42176;43.240;27.880;2023-04-30T02:51:29;99783.53;;;9.16;70.41
56270;BME280;42176;43.240;27.880;2023-04-30T02:53:56;99781.63;;;9.21;69.96
56270;BME280;42176;43.240;27.880;2023-04-30T02:56:22;99784.22;;;9.24;69.05
56270;BME280;42176;43.240;27.880;2023-04-30T02:58:47;99792.94;;;9.29;69.43
56270;BME280;42176;43.240;27.880;2023-04-30T03:01:14;99791.97;;;9.34;68.63
56270;BME280;42176;43.240;27.880;2023-04-30T03:03:39;99783.59;;;9.13;69.57
56270;BME280;42176;43.240;27.880;2023-04-30T03:06:05;99791.56;;;8.67;72.21
56270;BME280;42176;43.240;27.880;2023-04-30T03:08:30;99791.31;;;7.80;77.86
56270;BME280;42176;43.240;27.880;2023-04-30T03:10:56;99798.31;;;7.84;79.33
56270;BME280;42176;43.240;27.880;2023-04-30T03:13:21;99794.84;;;7.78;79.55
56270;BME280;42176;43.240;27.880;2023-04-30T03:15:56;99784.31;;;7.19;82.41
56270;BME280;42176;43.240;27.880;2023-04-30T03:18:22;99788.13;;;6.98;85.29
56270;BME280;42176;43.240;27.880;2023-04-30T03:20:47;99795.25;;;6.88;87.41
56270;BME280;42176;43.240;27.880;2023-04-30T03:23:12;99789.78;;;7.02;87.48
56270;BME280;42176;43.240;27.880;2023-04-30T03:25:38;99792.50;;;6.97;87.95
56270;BME280;42176;43.240;27.880;2023-04-30T03:28:04;99786.97;;;7.18;87.43
56270;BME280;42176;43.240;27.880;2023-04-30T03:30:29;99800.13;;;7.19;87.17
56270;BME280;42176;43.240;27.880;2023-04-30T03:32:55;99793.88;;;7.28;86.61
56270;BME280;42176;43.240;27.880;2023-04-30T03:35:20;99791.97;;;7.36;85.79
56270;BME280;42176;43.240;27.880;2023-04-30T03:37:46;99794.72;;;7.28;84.67
56270;BME280;42176;43.240;27.880;2023-04-30T03:40:11;99791.91;;;7.42;84.86
56270;BME280;42176;43.240;27.880;2023-04-30T03:42:37;99797.81;;;7.58;84.81
56270;BME280;42176;43.240;27.880;2023-04-30T03:45:03;99794.06;;;7.73;83.96
56270;BME280;42176;43.240;27.880;2023-04-30T03:47:29;99795.00;;;7.69;84.07
56270;BME280;42176;43.240;27.880;2023-04-30T03:49:54;99802.03;;;7.70;84.28
56270;BME280;42176;43.240;27.880;2023-04-30T03:52:20;99810.22;;;8.10;83.07
56270;BME280;42176;43.240;27.880;2023-04-30T03:54:46;99800.53;;;9.04;77.18
56270;BME280;42176;43.240;27.880;2023-04-30T03:57:11;99807.03;;;9.69;72.98
56270;BME280;42176;43.240;27.880;2023-04-30T03:59:39;99812.41;;;10.37;67.59
56270;BME280;42176;43.240;27.880;2023-04-30T04:02:04;99800.38;;;11.21;64.08
56270;BME280;42176;43.240;27.880;2023-04-30T04:04:30;99804.06;;;11.74;61.16
56270;BME280;42176;43.240;27.880;2023-04-30T04:06:56;99809.91;;;11.84;60.01
56270;BME280;42176;43.240;27.880;2023-04-30T04:09:21;99806.47;;;12.36;57.99
56270;BME280;42176;43.240;27.880;2023-04-30T04:11:47;99819.28;;;12.75;56.73
56270;BME280;42176;43.240;27.880;2023-04-30T04:14:13;99806.34;;;12.89;55.68
56270;BME280;42176;43.240;27.880;2023-04-30T04:16:38;99815.25;;;13.60;53.60
56270;BME280;42176;43.240;27.880;2023-04-30T04:19:04;99812.72;;;14.01;51.38
56270;BME280;42176;43.240;27.880;2023-04-30T04:21:29;99813.13;;;14.33;50.20
56270;BME280;42176;43.240;27.880;2023-04-30T04:23:55;99812.75;;;14.84;48.86
56270;BME280;42176;43.240;27.880;2023-04-30T04:26:21;99809.41;;;15.18;47.65
56270;BME280;42176;43.240;27.880;2023-04-30T04:28:49;99817.16;;;15.63;46.87
56270;BME280;42176;43.240;27.880;2023-04-30T04:31:16;99817.72;;;15.70;46.23
56270;BME280;42176;43.240;27.880;2023-04-30T04:33:41;99809.50;;;16.28;45.16
56270;BME280;42176;43.240;27.880;2023-04-30T04:36:07;99812.50;;;16.91;44.16
56270;BME280;42176;43.240;27.880;2023-04-30T04:38:32;99810.88;;;17.54;42.43
56270;BME280;42176;43.240;27.880;2023-04-30T04:40:58;99809.00;;;17.72;41.39
56270;BME280;42176;43.240;27.880;2023-04-30T04:43:23;99813.09;;;17.94;41.18
56270;BME280;42176;43.240;27.880;2023-04-30T04:45:49;99814.16;;;17.75;38.62
56270;BME280;42176;43.240;27.880;2023-04-30T04:48:14;99818.84;;;18.34;37.09
56270;BME280;42176;43.240;27.880;2023-04-30T04:50:40;99812.41;;;18.67;34.78
56270;BME280;42176;43.240;27.880;2023-04-30T04:53:05;99805.16;;;19.27;33.28
56270;BME280;42176;43.240;27.880;2023-04-30T04:55:31;99816.31;;;20.05;33.65
56270;BME280;42176;43.240;27.880;2023-04-30T04:57:56;99807.59;;;20.42;32.98
56270;BME280;42176;43.240;27.880;2023-04-30T05:02:52;99813.91;;;20.94;33.08
56270;BME280;42176;43.240;27.880;2023-04-30T05:05:18;99823.38;;;21.12;34.82
56270;BME280;42176;43.240;27.880;2023-04-30T05:07:43;99813.00;;;21.32;34.91
56270;BME280;42176;43.240;27.880;2023-04-30T05:10:09;99821.13;;;21.69;34.28
56270;BME280;42176;43.240;27.880;2023-04-30T05:12:34;99821.09;;;22.07;33.58
56270;BME280;42176;43.240;27.880;2023-04-30T05:15:00;99821.44;;;22.38;33.43
56270;BME280;42176;43.240;27.880;2023-04-30T05:17:25;99832.41;;;22.83;32.47
56270;BME280;42176;43.240;27.880;2023-04-30T05:20:10;99834.88;;;22.98;32.25
56270;BME280;42176;43.240;27.880;2023-04-30T05:22:35;99823.84;;;23.23;32.47
56270;BME280;42176;43.240;27.880;2023-04-30T05:25:01;99820.56;;;23.86;32.17
56270;BME280;42176;43.240;27.880;2023-04-30T05:27:26;99827.63;;;24.75;30.53
56270;BME280;42176;43.240;27.880;2023-04-30T05:29:52;99821.50;;;25.04;29.82
56270;BME280;42176;43.240;27.880;2023-04-30T05:32:17;99827.91;;;25.34;29.04
56270;BME280;42176;43.240;27.880;2023-04-30T05:34:42;99835.22;;;25.13;29.43
56270;BME280;42176;43.240;27.880;2023-04-30T05:37:08;99830.16;;;25.29;28.86
56270;BME280;42176;43.240;27.880;2023-04-30T05:39:33;99833.88;;;25.28;29.33
56270;BME280;42176;43.240;27.880;2023-04-30T05:41:59;99829.88;;;25.63;28.88
56270;BME280;42176;43.240;27.880;2023-04-30T05:44:24;99836.97;;;26.54;28.29
56270;BME280;42176;43.240;27.880;2023-04-30T05:46:49;99836.00;;;27.23;26.65
56270;BME280;42176;43.240;27.880;2023-04-30T05:49:15;99821.63;;;27.68;26.58
56270;BME280;42176;43.240;27.880;2023-04-30T05:51:40;99826.09;;;28.78;25.61
56270;BME280;42176;43.240;27.880;2023-04-30T05:54:06;99821.03;;;29.17;24.76
56270;BME280;42176;43.240;27.880;2023-04-30T05:56:32;99827.53;;;29.51;23.48
56270;BME280;42176;43.240;27.880;2023-04-30T05:58:57;99825.41;;;29.10;20.06
56270;BME280;42176;43.240;27.880;2023-04-30T06:01:23;99816.63;;;28.09;19.32
56270;BME280;42176;43.240;27.880;2023-04-30T06:03:49;99820.47;;;27.89;19.46
56270;BME280;42176;43.240;27.880;2023-04-30T06:06:14;99820.63;;;27.87;19.09
56270;BME280;42176;43.240;27.880;2023-04-30T06:08:40;99826.41;;;28.02;19.13
56270;BME280;42176;43.240;27.880;2023-04-30T06:11:09;99830.16;;;28.01;18.59
56270;BME280;42176;43.240;27.880;2023-04-30T06:13:37;99820.34;;;28.45;18.29
56270;BME280;42176;43.240;27.880;2023-04-30T06:16:03;99829.38;;;29.16;17.80
56270;BME280;42176;43.240;27.880;2023-04-30T06:18:29;99833.09;;;29.84;17.46
56270;BME280;42176;43.240;27.880;2023-04-30T06:20:54;99831.50;;;30.33;16.89
56270;BME280;42176;43.240;27.880;2023-04-30T06:23:20;99831.09;;;31.02;16.50
56270;BME280;42176;43.240;27.880;2023-04-30T06:25:45;99836.19;;;31.78;16.44
56270;BME280;42176;43.240;27.880;2023-04-30T06:28:11;99819.16;;;32.61;15.65
56270;BME280;42176;43.240;27.880;2023-04-30T06:30:36;99830.78;;;32.63;15.16
56270;BME280;42176;43.240;27.880;2023-04-30T06:33:02;99835.06;;;32.80;14.92
56270;BME280;42176;43.240;27.880;2023-04-30T06:35:27;99825.94;;;32.88;14.34
56270;BME280;42176;43.240;27.880;2023-04-30T06:37:52;99833.41;;;32.56;14.47
56270;BME280;42176;43.240;27.880;2023-04-30T06:40:18;99826.22;;;32.09;14.73
56270;BME280;42176;43.240;27.880;2023-04-30T06:42:44;99831.06;;;31.75;15.18
56270;BME280;42176;43.240;27.880;2023-04-30T06:45:10;99828.25;;;30.54;15.65
56270;BME280;42176;43.240;27.880;2023-04-30T06:47:36;99828.84;;;31.31;15.19
56270;BME280;42176;43.240;27.880;2023-04-30T06:50:03;99831.84;;;30.79;15.49
56270;BME280;42176;43.240;27.880;2023-04-30T06:52:29;99840.03;;;30.71;15.89
56270;BME280;42176;43.240;27.880;2023-04-30T06:54:55;99834.91;;;30.35;15.53
56270;BME280;42176;43.240;27.880;2023-04-30T06:57:21;99835.41;;;30.38;15.60
56270;BME280;42176;43.240;27.880;2023-04-30T06:59:46;99824.97;;;29.50;15.20
56270;BME280;42176;43.240;27.880;2023-04-30T07:02:12;99831.72;;;29.80;15.63
56270;BME280;42176;43.240;27.880;2023-04-30T07:04:37;99825.41;;;29.80;15.11
56270;BME280;42176;43.240;27.880;2023-04-30T07:07:03;99832.34;;;29.57;15.36
56270;BME280;42176;43.240;27.880;2023-04-30T07:09:29;99826.88;;;29.57;15.39
56270;BME280;42176;43.240;27.880;2023-04-30T07:11:54;99827.72;;;30.17;15.27
56270;BME280;42176;43.240;27.880;2023-04-30T07:14:21;99834.22;;;30.25;15.28
56270;BME280;42176;43.240;27.880;2023-04-30T07:16:49;99838.91;;;29.89;15.70
56270;BME280;42176;43.240;27.880;2023-04-30T07:19:14;99838.00;;;30.73;16.01
56270;BME280;42176;43.240;27.880;2023-04-30T07:21:39;99835.69;;;29.43;16.44
56270;BME280;42176;43.240;27.880;2023-04-30T07:24:05;99841.47;;;28.87;17.27
56270;BME280;42176;43.240;27.880;2023-04-30T07:26:30;99844.41;;;28.49;17.84
56270;BME280;42176;43.240;27.880;2023-04-30T07:28:56;99847.31;;;28.48;18.05
56270;BME280;42176;43.240;27.880;2023-04-30T07:31:21;99839.75;;;28.41;18.54
56270;BME280;42176;43.240;27.880;2023-04-30T07:33:47;99846.81;;;28.16;19.12
56270;BME280;42176;43.240;27.880;2023-04-30T07:36:15;99833.44;;;28.41;18.81
56270;BME280;42176;43.240;27.880;2023-04-30T07:38:41;99845.34;;;29.72;17.50
56270;BME280;42176;43.240;27.880;2023-04-30T07:41:06;99850.78;;;28.76;18.09
56270;BME280;42176;43.240;27.880;2023-04-30T07:43:34;99849.69;;;27.31;19.48
56270;BME280;42176;43.240;27.880;2023-04-30T07:45:59;99848.72;;;28.16;19.11
56270;BME280;42176;43.240;27.880;2023-04-30T07:48:25;99842.16;;;28.45;18.72
56270;BME280;42176;43.240;27.880;2023-04-30T07:50:50;99846.94;;;28.87;18.81
56270;BME280;42176;43.240;27.880;2023-04-30T07:53:16;99840.53;;;27.88;19.37
56270;BME280;42176;43.240;27.880;2023-04-30T07:55:41;99839.94;;;28.66;19.04
56270;BME280;42176;43.240;27.880;2023-04-30T07:58:07;99845.00;;;27.61;19.97
56270;BME280;42176;43.240;27.880;2023-04-30T08:00:33;99836.16;;;28.23;20.10
56270;BME280;42176;43.240;27.880;2023-04-30T08:02:58;99835.44;;;28.57;19.65
56270;BME280;42176;43.240;27.880;2023-04-30T08:05:25;99841.38;;;28.52;19.70
56270;BME280;42176;43.240;27.880;2023-04-30T08:07:51;99836.00;;;27.60;20.66
56270;BME280;42176;43.240;27.880;2023-04-30T08:10:17;99835.53;;;27.65;20.77
56270;BME280;42176;43.240;27.880;2023-04-30T08:12:42;99847.66;;;27.53;20.78
56270;BME280;42176;43.240;27.880;2023-04-30T08:15:08;99836.25;;;27.67;20.84
56270;BME280;42176;43.240;27.880;2023-04-30T08:17:33;99843.69;;;26.70;21.48
56270;BME280;42176;43.240;27.880;2023-04-30T08:20:00;99847.56;;;26.57;21.43
56270;BME280;42176;43.240;27.880;2023-04-30T08:22:25;99841.25;;;26.96;21.39
56270;BME280;42176;43.240;27.880;2023-04-30T08:24:51;99842.41;;;26.94;21.50
56270;BME280;42176;43.240;27.880;2023-04-30T08:27:17;99839.28;;;26.20;22.55
56270;BME280;42176;43.240;27.880;2023-04-30T08:29:42;99827.59;;;27.72;20.91
56270;BME280;42176;43.240;27.880;2023-04-30T08:32:07;99822.06;;;28.09;20.95
56270;BME280;42176;43.240;27.880;2023-04-30T08:34:33;99824.13;;;27.98;20.52
56270;BME280;42176;43.240;27.880;2023-04-30T08:36:59;99827.00;;;26.45;21.80
56270;BME280;42176;43.240;27.880;2023-04-30T08:39:25;99822.03;;;26.98;21.39
56270;BME280;42176;43.240;27.880;2023-04-30T08:41:54;99814.94;;;26.77;22.19
56270;BME280;42176;43.240;27.880;2023-04-30T08:44:25;99814.41;;;26.44;22.15
56270;BME280;42176;43.240;27.880;2023-04-30T08:46:53;99807.53;;;26.50;22.67
56270;BME280;42176;43.240;27.880;2023-04-30T08:49:20;99816.06;;;26.84;22.18
56270;BME280;42176;43.240;27.880;2023-04-30T08:51:46;99818.75;;;27.04;22.08
56270;BME280;42176;43.240;27.880;2023-04-30T08:54:12;99819.06;;;26.81;22.14
56270;BME280;42176;43.240;27.880;2023-04-30T08:56:40;99822.28;;;27.14;21.84
56270;BME280;42176;43.240;27.880;2023-04-30T08:59:06;99825.16;;;27.13;22.12
56270;BME280;42176;43.240;27.880;2023-04-30T09:01:33;99819.22;;;26.89;22.14
56270;BME280;42176;43.240;27.880;2023-04-30T09:03:58;99811.25;;;26.58;22.38
56270;BME280;42176;43.240;27.880;2023-04-30T09:06:24;99819.28;;;26.11;23.22
56270;BME280;42176;43.240;27.880;2023-04-30T09:08:51;99804.38;;;26.05;23.48
56270;BME280;42176;43.240;27.880;2023-04-30T09:13:49;99811.94;;;24.58;24.95
56270;BME280;42176;43.240;27.880;2023-04-30T09:16:15;99770.00;;;23.43;26.66
56270;BME280;42176;43.240;27.880;2023-04-30T09:18:40;99806.13;;;22.96;27.50
56270;BME280;42176;43.240;27.880;2023-04-30T09:21:06;99811.41;;;22.40;28.88
56270;BME280;42176;43.240;27.880;2023-04-30T09:23:33;99786.19;;;21.55;29.72
56270;BME280;42176;43.240;27.880;2023-04-30T09:25:59;99807.63;;;21.19;30.07
56270;BME280;42176;43.240;27.880;2023-04-30T09:28:25;99795.78;;;20.70;31.07
56270;BME280;42176;43.240;27.880;2023-04-30T09:30:55;99792.94;;;20.59;31.93
56270;BME280;42176;43.240;27.880;2023-04-30T09:33:21;99792.28;;;20.42;31.86
56270;BME280;42176;43.240;27.880;2023-04-30T09:35:46;99788.84;;;20.40;31.88
56270;BME280;42176;43.240;27.880;2023-04-30T09:38:30;99782.81;;;20.23;32.36
56270;BME280;42176;43.240;27.880;2023-04-30T09:41:00;99793.47;;;19.98;32.63
56270;BME280;42176;43.240;27.880;2023-04-30T09:43:27;99795.00;;;20.02;33.14
56270;BME280;42176;43.240;27.880;2023-04-30T09:45:52;99777.16;;;19.86;33.00
56270;BME280;42176;43.240;27.880;2023-04-30T09:48:21;99772.75;;;19.85;33.71
56270;BME280;42176;43.240;27.880;2023-04-30T09:50:47;99780.94;;;19.84;33.12
56270;BME280;42176;43.240;27.880;2023-04-30T09:53:14;99778.53;;;19.79;32.97
56270;BME280;42176;43.240;27.880;2023-04-30T09:55:48;99779.75;;;19.60;33.20
56270;BME280;42176;43.240;27.880;2023-04-30T09:58:15;99770.78;;;19.32;33.18
56270;BME280;42176;43.240;27.880;2023-04-30T10:00:42;99784.59;;;19.41;33.50
56270;BME280;42176;43.240;27.880;2023-04-30T10:03:13;99775.56;;;19.42;33.13
56270;BME280;42176;43.240;27.880;2023-04-30T10:05:44;99777.34;;;19.56;34.60
56270;BME280;42176;43.240;27.880;2023-04-30T10:08:27;99774.16;;;19.63;34.42
56270;BME280;42176;43.240;27.880;2023-04-30T10:10:58;99782.25;;;19.49;32.04
56270;BME280;42176;43.240;27.880;2023-04-30T10:13:30;99793.00;;;19.49;33.10
56270;BME280;42176;43.240;27.880;2023-04-30T10:15:58;99767.09;;;19.48;33.11
56270;BME280;42176;43.240;27.880;2023-04-30T10:18:28;99778.44;;;19.53;33.90
56270;BME280;42176;43.240;27.880;2023-04-30T10:20:56;99781.09;;;19.53;33.61
56270;BME280;42176;43.240;27.880;2023-04-30T10:23:23;99770.75;;;19.61;33.11
56270;BME280;42176;43.240;27.880;2023-04-30T10:25:50;99790.91;;;19.54;32.72
56270;BME280;42176;43.240;27.880;2023-04-30T10:28:15;99783.75;;;19.26;32.85
56270;BME280;42176;43.240;27.880;2023-04-30T10:30:41;99781.19;;;19.24;32.98
56270;BME280;42176;43.240;27.880;2023-04-30T10:35:51;99776.16;;;19.32;32.80
56270;BME280;42176;43.240;27.880;2023-04-30T10:38:22;99776.53;;;19.41;32.89
56270;BME280;42176;43.240;27.880;2023-04-30T10:40:50;99768.56;;;19.54;34.09
56270;BME280;42176;43.240;27.880;2023-04-30T10:43:18;99769.84;;;19.61;33.14
56270;BME280;42176;43.240;27.880;2023-04-30T10:45:46;99781.25;;;19.65;33.01
56270;BME280;42176;43.240;27.880;2023-04-30T10:48:15;99764.44;;;19.75;32.63
56270;BME280;42176;43.240;27.880;2023-04-30T10:50:42;99771.53;;;19.76;33.17
56270;BME280;42176;43.240;27.880;2023-04-30T10:53:12;99778.31;;;19.82;32.48
56270;BME280;42176;43.240;27.880;2023-04-30T10:55:49;99746.69;;;19.73;32.89
56270;BME280;42176;43.240;27.880;2023-04-30T11:01:03;99756.63;;;19.85;31.91
56270;BME280;42176;43.240;27.880;2023-04-30T11:03:30;99774.41;;;19.73;32.38
56270;BME280;42176;43.240;27.880;2023-04-30T11:05:57;99765.19;;;19.77;32.83
56270;BME280;42176;43.240;27.880;2023-04-30T11:08:42;99769.28;;;19.83;32.45
56270;BME280;42176;43.240;27.880;2023-04-30T11:11:11;99754.88;;;19.84;32.82
56270;BME280;42176;43.240;27.880;2023-04-30T11:13:46;99763.31;;;19.65;31.75
56270;BME280;42176;43.240;27.880;2023-04-30T11:16:14;99759.69;;;19.79;32.25
56270;BME280;42176;43.240;27.880;2023-04-30T11:18:44;99770.44;;;19.93;32.75
56270;BME280;42176;43.240;27.880;2023-04-30T11:21:11;99765.72;;;19.97;31.41
56270;BME280;42176;43.240;27.880;2023-04-30T11:23:40;99759.50;;;19.82;31.15
56270;BME280;42176;43.240;27.880;2023-04-30T11:26:07;99766.25;;;19.89;32.46
56270;BME280;42176;43.240;27.880;2023-04-30T11:28:33;99767.00;;;19.91;31.54
56270;BME280;42176;43.240;27.880;2023-04-30T11:31:02;99767.22;;;19.88;30.99
56270;BME280;42176;43.240;27.880;2023-04-30T11:33:30;99761.63;;;19.91;31.26
56270;BME280;42176;43.240;27.880;2023-04-30T11:35:56;99758.88;;;20.06;31.74
56270;BME280;42176;43.240;27.880;2023-04-30T11:38:30;99751.19;;;20.00;31.21
56270;BME280;42176;43.240;27.880;2023-04-30T11:40:58;99752.78;;;19.89;31.32
56270;BME280;42176;43.240;27.880;2023-04-30T11:43:26;99756.47;;;20.01;31.19
56270;BME280;42176;43.240;27.880;2023-04-30T11:48:30;99753.72;;;20.16;32.25
56270;BME280;42176;43.240;27.880;2023-04-30T11:50:56;99763.81;;;19.99;30.66
56270;BME280;42176;43.240;27.880;2023-04-30T11:53:26;99732.25;;;19.88;31.10
56270;BME280;42176;43.240;27.880;2023-04-30T11:55:52;99751.13;;;20.14;30.28
56270;BME280;42176;43.240;27.880;2023-04-30T11:58:19;99747.25;;;20.18;30.91
56270;BME280;42176;43.240;27.880;2023-04-30T12:00:44;99743.41;;;20.22;30.53
56270;BME280;42176;43.240;27.880;2023-04-30T12:03:13;99747.47;;;20.15;30.55
56270;BME280;42176;43.240;27.880;2023-04-30T12:05:39;99749.84;;;20.20;29.94
56270;BME280;42176;43.240;27.880;2023-04-30T12:08:06;99742.34;;;20.38;30.33
56270;BME280;42176;43.240;27.880;2023-04-30T12:10:34;99745.13;;;20.49;29.83
56270;BME280;42176;43.240;27.880;2023-04-30T12:13:00;99732.53;;;20.37;30.27
56270;BME280;42176;43.240;27.880;2023-04-30T12:15:27;99738.69;;;20.39;31.19
56270;BME280;42176;43.240;27.880;2023-04-30T12:17:57;99743.84;;;20.42;30.44
56270;BME280;42176;43.240;27.880;2023-04-30T12:23:09;99742.66;;;20.46;31.79
56270;BME280;42176;43.240;27.880;2023-04-30T12:25:41;99729.84;;;20.37;31.09
56270;BME280;42176;43.240;27.880;2023-04-30T12:28:08;99742.53;;;20.35;30.80
56270;BME280;42176;43.240;27.880;2023-04-30T12:30:34;99741.38;;;20.39;30.43
56270;BME280;42176;43.240;27.880;2023-04-30T12:33:00;99741.91;;;20.44;30.27
56270;BME280;42176;43.240;27.880;2023-04-30T12:35:29;99743.41;;;20.74;30.87
56270;BME280;42176;43.240;27.880;2023-04-30T12:38:07;99747.84;;;20.75;30.59
56270;BME280;42176;43.240;27.880;2023-04-30T12:40:34;99745.25;;;20.74;29.93
56270;BME280;42176;43.240;27.880;2023-04-30T12:43:01;99732.84;;;20.71;29.92
56270;BME280;42176;43.240;27.880;2023-04-30T12:46:02;99724.47;;;20.63;29.64
56270;BME280;42176;43.240;27.880;2023-04-30T12:48:27;99741.50;;;20.76;30.33
56270;BME280;42176;43.240;27.880;2023-04-30T12:50:54;99737.16;;;20.87;30.07
56270;BME280;42176;43.240;27.880;2023-04-30T12:53:21;99739.78;;;20.75;30.26
56270;BME280;42176;43.240;27.880;2023-04-30T12:56:08;99734.38;;;20.88;30.08
56270;BME280;42176;43.240;27.880;2023-04-30T12:58:34;99723.06;;;20.70;29.70
56270;BME280;42176;43.240;27.880;2023-04-30T13:00:59;99732.03;;;20.83;29.55
56270;BME280;42176;43.240;27.880;2023-04-30T13:03:25;99726.19;;;20.64;30.29
56270;BME280;42176;43.240;27.880;2023-04-30T13:05:50;99730.91;;;20.47;30.57
56270;BME280;42176;43.240;27.880;2023-04-30T13:08:17;99719.50;;;20.57;31.18
56270;BME280;42176;43.240;27.880;2023-04-30T13:10:47;99721.75;;;20.63;30.25
56270;BME280;42176;43.240;27.880;2023-04-30T13:13:14;99725.97;;;20.80;32.14
56270;BME280;42176;43.240;27.880;2023-04-30T13:15:39;99722.56;;;20.78;30.96
56270;BME280;42176;43.240;27.880;2023-04-30T13:18:06;99720.34;;;20.96;30.32
56270;BME280;42176;43.240;27.880;2023-04-30T13:20:36;99720.50;;;20.81;29.82
56270;BME280;42176;43.240;27.880;2023-04-30T13:23:03;99714.56;;;20.76;30.26
56270;BME280;42176;43.240;27.880;2023-04-30T13:25:29;99722.31;;;20.68;30.40
56270;BME280;42176;43.240;27.880;2023-04-30T13:27:54;99719.63;;;20.81;30.35